createdAt,value
2023-01-29T00:00:28.864Z,1.22
2023-01-29T00:01:32.059Z,1.22
2023-01-29T00:02:35.836Z,1.23
2023-01-29T00:03:39.016Z,1.24
2023-01-29T00:04:42.209Z,1.27
2023-01-29T00:05:45.252Z,1.28
2023-01-29T00:06:50.296Z,1.29
2023-01-29T00:07:55.366Z,1.30
2023-01-29T00:08:58.469Z,1.29
2023-01-29T00:10:01.541Z,1.29
2023-01-29T00:11:06.606Z,1.29
2023-01-29T00:12:09.704Z,1.29
2023-01-29T00:13:12.753Z,1.29
2023-01-29T00:14:15.908Z,1.28
2023-01-29T00:15:20.195Z,1.27
2023-01-29T00:16:23.592Z,1.27
2023-01-29T00:17:27.695Z,1.27
2023-01-29T00:18:31.203Z,1.25
2023-01-29T00:19:35.665Z,1.25
2023-01-29T00:20:38.977Z,1.26
2023-01-29T00:21:42.072Z,1.28
2023-01-29T00:22:45.252Z,1.28
2023-01-29T00:23:48.941Z,1.29
2023-01-29T00:24:52.019Z,1.29
2023-01-29T00:25:56.957Z,1.30
2023-01-29T00:27:00.230Z,1.30
2023-01-29T00:28:03.458Z,1.30
2023-01-29T00:29:06.648Z,1.28
2023-01-29T00:30:16.046Z,1.23
2023-01-29T00:31:22.294Z,1.20
2023-01-29T00:32:25.465Z,1.15
2023-01-29T00:33:28.968Z,1.11
2023-01-29T00:34:32.127Z,1.09
2023-01-29T00:35:35.352Z,1.10
2023-01-29T00:36:39.020Z,1.10
2023-01-29T00:37:42.182Z,1.11
2023-01-29T00:38:50.709Z,1.13
2023-01-29T00:39:53.868Z,1.13
2023-01-29T00:41:15.785Z,1.16
2023-01-29T00:42:37.059Z,1.17
2023-01-29T00:43:48.060Z,1.20
2023-01-29T00:44:57.293Z,1.23
2023-01-29T00:46:00.580Z,1.24
2023-01-29T00:47:09.787Z,1.25
2023-01-29T00:48:12.873Z,1.27
2023-01-29T00:49:16.149Z,1.29
2023-01-29T00:50:19.603Z,1.31
2023-01-29T00:51:22.796Z,1.32
2023-01-29T00:52:26.523Z,1.34
2023-01-29T00:53:31.841Z,1.34
2023-01-29T00:54:35.630Z,1.34
2023-01-29T00:55:38.986Z,1.34
2023-01-29T00:56:42.252Z,1.34
2023-01-29T00:57:45.498Z,1.35
2023-01-29T00:58:50.420Z,1.36
2023-01-29T00:59:54.032Z,1.36
2023-01-29T01:00:57.334Z,1.35
2023-01-29T01:02:19.066Z,1.34
2023-01-29T01:03:22.279Z,1.33
2023-01-29T01:04:25.475Z,1.31
2023-01-29T01:05:28.844Z,1.29
2023-01-29T01:06:35.914Z,1.27
2023-01-29T01:07:40.192Z,1.25
2023-01-29T01:09:01.822Z,1.27
2023-01-29T01:10:20.553Z,1.27
2023-01-29T01:11:23.757Z,1.27
2023-01-29T01:12:28.127Z,1.28
2023-01-29T01:13:35.019Z,1.29
2023-01-29T01:14:38.185Z,1.30
2023-01-29T01:15:41.348Z,1.30
2023-01-29T01:16:45.947Z,1.32
2023-01-29T01:17:52.586Z,1.33
2023-01-29T01:18:55.694Z,1.34
2023-01-29T01:19:58.862Z,1.35
2023-01-29T01:21:02.064Z,1.36
2023-01-29T01:22:05.224Z,1.36
2023-01-29T01:23:08.406Z,1.37
2023-01-29T01:24:12.911Z,1.37
2023-01-29T01:25:17.103Z,1.37
2023-01-29T01:26:20.269Z,1.37
2023-01-29T01:27:25.048Z,1.38
2023-01-29T01:28:28.515Z,1.37
2023-01-29T01:29:31.609Z,1.36
2023-01-29T01:30:34.789Z,1.36
2023-01-29T01:31:38.057Z,1.36
2023-01-29T01:32:44.209Z,1.37
2023-01-29T01:33:49.185Z,1.37
2023-01-29T01:34:53.077Z,1.36
2023-01-29T01:35:59.776Z,1.35
2023-01-29T01:37:02.982Z,1.34
2023-01-29T01:38:06.430Z,1.33
2023-01-29T01:39:09.491Z,1.33
2023-01-29T01:40:17.515Z,1.33
2023-01-29T01:41:22.662Z,1.34
2023-01-29T01:42:32.380Z,1.34
2023-01-29T01:44:00.183Z,1.35
2023-01-29T01:45:07.390Z,1.36
2023-01-29T01:46:10.862Z,1.36
2023-01-29T01:47:15.118Z,1.36
2023-01-29T01:48:24.490Z,1.37
2023-01-29T01:49:28.009Z,1.36
2023-01-29T01:50:35.117Z,1.35
2023-01-29T01:51:41.800Z,1.33
2023-01-29T01:52:48.379Z,1.33
2023-01-29T01:54:06.814Z,1.34
2023-01-29T01:55:13.497Z,1.33
2023-01-29T01:56:20.362Z,1.32
2023-01-29T01:57:25.321Z,1.33
2023-01-29T01:58:36.696Z,1.33
2023-01-29T01:59:40.607Z,1.33
2023-01-29T02:00:44.278Z,1.32
2023-01-29T02:01:50.805Z,1.31
2023-01-29T02:03:12.543Z,1.30
2023-01-29T02:04:42.744Z,1.31
2023-01-29T02:06:05.142Z,1.33
2023-01-29T02:07:29.186Z,1.34
2023-01-29T02:08:59.643Z,1.33
2023-01-29T02:10:12.175Z,1.34
2023-01-29T02:11:15.775Z,1.34
2023-01-29T02:12:20.562Z,1.34
2023-01-29T02:13:24.041Z,1.34
2023-01-29T02:14:27.418Z,1.34
2023-01-29T02:15:30.605Z,1.34
2023-01-29T02:16:37.384Z,1.33
2023-01-29T02:17:45.466Z,1.33
2023-01-29T02:18:51.522Z,1.35
2023-01-29T02:20:08.115Z,1.35
2023-01-29T02:21:23.917Z,1.35
2023-01-29T02:22:54.699Z,1.37
2023-01-29T02:24:32.030Z,1.38
2023-01-29T02:26:07.393Z,1.38
2023-01-29T02:27:16.207Z,1.39
2023-01-29T02:28:41.032Z,1.39
2023-01-29T02:29:56.954Z,1.39
2023-01-29T02:31:18.748Z,1.40
2023-01-29T02:32:28.436Z,1.38
2023-01-29T02:33:47.072Z,1.37
2023-01-29T02:35:24.157Z,1.37
2023-01-29T02:36:39.249Z,1.36
2023-01-29T02:38:06.533Z,1.36
2023-01-29T02:39:34.890Z,1.36
2023-01-29T02:40:50.816Z,1.35
2023-01-29T02:42:08.595Z,1.35
2023-01-29T02:43:30.301Z,1.33
2023-01-29T02:44:58.572Z,1.33
2023-01-29T02:46:22.965Z,1.33
2023-01-29T02:47:29.724Z,1.34
2023-01-29T02:48:42.438Z,1.36
2023-01-29T02:50:20.940Z,1.36
2023-01-29T02:51:30.564Z,1.38
2023-01-29T02:52:37.217Z,1.37
2023-01-29T02:53:50.070Z,1.36
2023-01-29T02:55:04.272Z,1.36
2023-01-29T02:56:12.216Z,1.37
2023-01-29T02:57:19.664Z,1.38
2023-01-29T02:58:29.425Z,1.38
2023-01-29T02:59:39.154Z,1.39
2023-01-29T03:00:45.259Z,1.38
2023-01-29T03:01:51.785Z,1.39
2023-01-29T03:03:07.323Z,1.36
2023-01-29T03:04:15.791Z,1.36
2023-01-29T03:05:34.295Z,1.35
2023-01-29T03:06:40.753Z,1.36
2023-01-29T03:07:47.499Z,1.33
2023-01-29T03:08:56.002Z,1.29
2023-01-29T03:10:01.057Z,1.27
2023-01-29T03:11:06.692Z,1.25
2023-01-29T03:12:21.357Z,1.24
2023-01-29T03:15:00.617Z,1.34
2023-01-29T03:16:35.219Z,1.21
2023-01-29T03:17:51.013Z,1.22
2023-01-29T03:18:57.646Z,1.21
2023-01-29T03:20:03.018Z,1.20
2023-01-29T03:21:11.527Z,1.17
2023-01-29T03:22:16.521Z,1.17
2023-01-29T03:23:26.634Z,1.18
2023-01-29T03:24:57.704Z,1.18
2023-01-29T03:26:19.255Z,1.20
2023-01-29T03:27:43.979Z,1.19
2023-01-29T03:29:06.418Z,1.16
2023-01-29T03:30:31.935Z,1.14
2023-01-29T03:31:55.969Z,1.12
2023-01-29T03:33:02.559Z,1.12
2023-01-29T03:34:24.121Z,1.14
2023-01-29T03:35:36.274Z,1.15
2023-01-29T03:37:01.539Z,1.17
2023-01-29T03:38:10.031Z,1.19
2023-01-29T03:39:15.208Z,1.22
2023-01-29T03:40:19.336Z,1.21
2023-01-29T03:41:35.318Z,1.22
2023-01-29T03:42:41.971Z,1.24
2023-01-29T03:43:54.762Z,1.25
2023-01-29T03:45:04.868Z,1.29
2023-01-29T03:46:30.846Z,1.29
2023-01-29T03:47:52.496Z,1.31
2023-01-29T03:49:02.452Z,1.33
2023-01-29T03:50:27.988Z,1.34
2023-01-29T03:51:59.199Z,1.37
2023-01-29T03:53:24.288Z,1.37
2023-01-29T03:56:23.963Z,1.50
2023-01-29T03:57:36.831Z,1.39
2023-01-29T03:58:49.190Z,1.38
2023-01-29T04:00:09.365Z,1.35
2023-01-29T04:01:37.181Z,1.32
2023-01-29T04:03:14.120Z,1.30
2023-01-29T04:04:23.383Z,1.28
2023-01-29T04:05:30.400Z,1.25
2023-01-29T04:06:50.954Z,1.24
2023-01-29T04:07:57.799Z,1.23
2023-01-29T04:09:16.472Z,1.21
2023-01-29T04:10:23.312Z,1.23
2023-01-29T04:11:28.994Z,1.23
2023-01-29T04:13:51.871Z,1.36
2023-01-29T04:14:58.629Z,1.26
2023-01-29T04:16:05.373Z,1.28
2023-01-29T04:17:20.059Z,1.30
2023-01-29T04:18:25.270Z,1.32
2023-01-29T04:19:39.829Z,1.33
2023-01-29T04:20:43.926Z,1.34
2023-01-29T04:21:50.391Z,1.34
2023-01-29T04:22:53.605Z,1.36
2023-01-29T04:23:56.688Z,1.36
2023-01-29T04:25:07.983Z,1.35
2023-01-29T04:26:41.711Z,1.34
2023-01-29T04:28:06.177Z,1.33
2023-01-29T04:29:16.845Z,1.30
2023-01-29T04:33:12.323Z,1.37
2023-01-29T04:34:26.971Z,1.25
2023-01-29T04:35:35.491Z,1.23
2023-01-29T04:36:47.700Z,1.23
2023-01-29T04:38:03.060Z,1.23
2023-01-29T04:39:12.816Z,1.23
2023-01-29T04:40:19.529Z,1.25
2023-01-29T04:41:35.445Z,1.26
2023-01-29T04:43:06.518Z,1.28
2023-01-29T04:44:23.384Z,1.29
2023-01-29T04:45:52.543Z,1.30
2023-01-29T04:46:59.435Z,1.27
2023-01-29T04:48:12.033Z,1.23
2023-01-29T04:49:39.940Z,1.22
2023-01-29T04:50:58.430Z,1.22
2023-01-29T04:52:08.313Z,1.23
2023-01-29T04:53:15.060Z,1.22
2023-01-29T04:54:38.174Z,1.22
2023-01-29T04:55:53.317Z,1.23
2023-01-29T04:57:05.826Z,1.22
2023-01-29T04:58:36.719Z,1.19
2023-01-29T04:59:49.261Z,1.17
2023-01-29T05:00:54.369Z,1.17
2023-01-29T05:02:02.701Z,1.18
2023-01-29T05:03:08.589Z,1.20
2023-01-29T05:04:14.866Z,1.20
2023-01-29T05:05:19.859Z,1.20
2023-01-29T05:06:25.067Z,1.20
2023-01-29T05:07:30.634Z,1.20
2023-01-29T05:08:35.596Z,1.20
2023-01-29T05:09:39.377Z,1.22
2023-01-29T05:10:42.965Z,1.21
2023-01-29T05:11:48.965Z,1.22
2023-01-29T05:12:55.693Z,1.22
2023-01-29T05:14:01.260Z,1.21
2023-01-29T05:15:08.194Z,1.23
2023-01-29T05:16:22.936Z,1.24
2023-01-29T05:17:26.540Z,1.27
2023-01-29T05:18:30.567Z,1.29
2023-01-29T05:19:33.848Z,1.30
2023-01-29T05:20:39.985Z,1.31
2023-01-29T05:21:45.902Z,1.32
2023-01-29T05:22:49.174Z,1.33
2023-01-29T05:24:12.988Z,1.34
2023-01-29T05:25:25.565Z,1.36
2023-01-29T05:26:47.384Z,1.37
2023-01-29T05:28:03.638Z,1.37
2023-01-29T05:29:07.731Z,1.35
2023-01-29T05:30:11.342Z,1.34
2023-01-29T05:31:14.826Z,1.34
2023-01-29T05:32:18.041Z,1.33
2023-01-29T05:33:27.482Z,1.30
2023-01-29T05:34:30.661Z,1.29
2023-01-29T05:35:34.221Z,1.26
2023-01-29T05:36:37.382Z,1.23
2023-01-29T05:37:40.586Z,1.21
2023-01-29T05:38:43.755Z,1.18
2023-01-29T05:39:46.928Z,1.18
2023-01-29T05:40:50.562Z,1.20
2023-01-29T05:41:53.721Z,1.19
2023-01-29T05:42:56.945Z,1.19
2023-01-29T05:44:00.113Z,1.21
2023-01-29T05:45:03.669Z,1.22
2023-01-29T05:46:07.012Z,1.24
2023-01-29T05:47:10.194Z,1.24
2023-01-29T05:48:13.503Z,1.25
2023-01-29T05:49:17.567Z,1.26
2023-01-29T05:50:20.754Z,1.28
2023-01-29T05:51:23.980Z,1.30
2023-01-29T05:52:27.044Z,1.32
2023-01-29T05:53:30.919Z,1.33
2023-01-29T05:54:37.239Z,1.33
2023-01-29T05:55:45.519Z,1.36
2023-01-29T05:56:49.013Z,1.37
2023-01-29T05:57:52.213Z,1.38
2023-01-29T05:58:55.871Z,1.40
2023-01-29T05:59:59.047Z,1.41
2023-01-29T06:01:17.235Z,1.42
2023-01-29T06:02:20.720Z,1.42
2023-01-29T06:03:23.795Z,1.42
2023-01-29T06:04:26.988Z,1.42
2023-01-29T06:05:30.198Z,1.42
2023-01-29T06:06:33.463Z,1.42
2023-01-29T06:07:36.821Z,1.42
2023-01-29T06:08:40.802Z,1.42
2023-01-29T06:09:44.000Z,1.43
2023-01-29T06:10:47.130Z,1.43
2023-01-29T06:11:50.277Z,1.44
2023-01-29T06:12:53.461Z,1.44
2023-01-29T06:13:56.644Z,1.46
2023-01-29T06:14:59.832Z,1.47
2023-01-29T06:16:11.820Z,1.49
2023-01-29T06:17:17.906Z,1.51
2023-01-29T06:18:21.169Z,1.53
2023-01-29T06:19:24.388Z,1.56
2023-01-29T06:20:27.909Z,1.60
2023-01-29T06:21:31.021Z,1.60
2023-01-29T06:22:34.122Z,1.63
2023-01-29T06:23:37.889Z,1.64
2023-01-29T06:24:41.143Z,1.66
2023-01-29T06:25:44.442Z,1.67
2023-01-29T06:26:47.762Z,1.68
2023-01-29T06:27:51.159Z,1.71
2023-01-29T06:28:54.364Z,1.73
2023-01-29T06:29:57.566Z,1.74
2023-01-29T06:31:23.668Z,1.77
2023-01-29T06:32:10.774Z,1.78
2023-01-29T06:33:14.017Z,1.80
2023-01-29T06:34:17.377Z,1.82
2023-01-29T06:35:20.563Z,1.84
2023-01-29T06:36:23.822Z,1.83
2023-01-29T06:37:28.826Z,1.82
2023-01-29T06:38:32.506Z,1.79
2023-01-29T06:39:35.672Z,1.78
2023-01-29T06:40:38.974Z,1.77
2023-01-29T06:41:42.185Z,1.78
2023-01-29T06:42:46.226Z,1.77
2023-01-29T06:43:49.391Z,1.78
2023-01-29T06:44:52.445Z,1.79
2023-01-29T06:45:57.032Z,1.80
2023-01-29T06:47:00.352Z,1.80
2023-01-29T06:48:03.584Z,1.80
2023-01-29T06:49:06.761Z,1.81
2023-01-29T06:50:11.109Z,1.81
2023-01-29T06:51:14.304Z,1.80
2023-01-29T06:52:17.387Z,1.80
2023-01-29T06:53:21.268Z,1.80
2023-01-29T06:54:24.520Z,1.80
2023-01-29T06:55:27.694Z,1.80
2023-01-29T06:56:30.869Z,1.79
2023-01-29T06:57:33.946Z,1.79
2023-01-29T06:58:37.909Z,1.78
2023-01-29T06:59:41.157Z,1.78
2023-01-29T07:00:44.249Z,1.79
2023-01-29T07:01:47.449Z,1.81
2023-01-29T07:02:50.637Z,1.83
2023-01-29T07:03:53.941Z,1.86
2023-01-29T07:04:56.953Z,1.86
2023-01-29T07:06:00.221Z,1.88
2023-01-29T07:07:03.602Z,1.90
2023-01-29T07:08:06.837Z,1.92
2023-01-29T07:09:13.028Z,1.93
2023-01-29T07:10:16.922Z,1.95
2023-01-29T07:11:20.221Z,1.95
2023-01-29T07:12:23.352Z,1.96
2023-01-29T07:13:26.853Z,1.96
2023-01-29T07:14:30.014Z,1.96
2023-01-29T07:15:33.110Z,1.96
2023-01-29T07:16:36.337Z,1.98
2023-01-29T07:17:39.462Z,1.99
2023-01-29T07:18:42.645Z,2.00
2023-01-29T07:19:45.725Z,2.01
2023-01-29T07:20:49.010Z,2.03
2023-01-29T07:21:52.193Z,2.05
2023-01-29T07:22:56.752Z,2.05
2023-01-29T07:24:01.822Z,2.07
2023-01-29T07:25:05.996Z,2.10
2023-01-29T07:26:10.526Z,2.14
2023-01-29T07:27:13.717Z,2.15
2023-01-29T07:28:17.998Z,2.15
2023-01-29T07:29:21.178Z,2.16
2023-01-29T07:30:24.348Z,2.18
2023-01-29T07:31:27.825Z,2.20
2023-01-29T07:32:31.064Z,2.22
2023-01-29T07:33:34.362Z,2.25
2023-01-29T07:34:37.533Z,2.26
2023-01-29T07:35:43.037Z,2.29
2023-01-29T07:36:46.203Z,2.30
2023-01-29T07:37:50.130Z,2.31
2023-01-29T07:38:53.270Z,2.32
2023-01-29T07:39:56.463Z,2.31
2023-01-29T07:41:03.169Z,2.31
2023-01-29T07:42:06.328Z,2.30
2023-01-29T07:43:10.191Z,2.31
2023-01-29T07:44:14.304Z,2.31
2023-01-29T07:45:17.605Z,2.31
2023-01-29T07:46:21.058Z,2.33
2023-01-29T07:47:24.254Z,2.33
2023-01-29T07:48:27.506Z,2.33
2023-01-29T07:49:30.588Z,2.34
2023-01-29T07:50:34.868Z,2.34
2023-01-29T07:51:38.075Z,2.34
2023-01-29T07:52:41.269Z,2.35
2023-01-29T07:53:44.606Z,2.35
2023-01-29T07:54:49.699Z,2.36
2023-01-29T07:55:52.951Z,2.36
2023-01-29T07:56:56.171Z,2.38
2023-01-29T07:58:02.231Z,2.38
2023-01-29T07:59:05.346Z,2.38
2023-01-29T08:00:11.510Z,2.36
2023-01-29T08:02:28.615Z,2.49
2023-01-29T08:03:31.744Z,2.39
2023-01-29T08:04:34.950Z,2.40
2023-01-29T08:05:38.329Z,2.40
2023-01-29T08:06:43.697Z,2.42
2023-01-29T08:08:05.334Z,2.43
2023-01-29T08:08:56.781Z,2.46
2023-01-29T08:10:00.004Z,2.49
2023-01-29T08:11:05.031Z,2.51
2023-01-29T08:12:08.233Z,2.53
2023-01-29T08:13:11.387Z,2.54
2023-01-29T08:14:16.344Z,2.55
2023-01-29T08:15:19.427Z,2.58
2023-01-29T08:16:22.813Z,2.59
2023-01-29T08:17:25.854Z,2.59
2023-01-29T08:18:30.932Z,2.60
2023-01-29T08:19:34.162Z,2.60
2023-01-29T08:20:40.172Z,2.62
2023-01-29T08:21:43.387Z,2.64
2023-01-29T08:22:46.522Z,2.65
2023-01-29T08:23:51.548Z,2.69
2023-01-29T08:25:06.305Z,2.70
2023-01-29T08:26:01.412Z,2.72
2023-01-29T08:27:04.619Z,2.74
2023-01-29T08:28:08.272Z,2.76
2023-01-29T08:29:11.971Z,2.79
2023-01-29T08:30:16.943Z,2.79
2023-01-29T08:31:20.862Z,2.81
2023-01-29T08:32:24.015Z,2.82
2023-01-29T08:33:38.620Z,2.82
2023-01-29T08:35:50.844Z,2.96
2023-01-29T08:36:54.509Z,2.86
2023-01-29T08:38:00.793Z,2.88
2023-01-29T08:39:03.876Z,2.92
2023-01-29T08:40:10.242Z,2.94
2023-01-29T08:41:13.422Z,2.96
2023-01-29T08:42:16.398Z,2.99
2023-01-29T08:43:21.509Z,3.01
2023-01-29T08:44:24.742Z,3.05
2023-01-29T08:45:27.970Z,3.07
2023-01-29T08:46:31.701Z,3.09
2023-01-29T08:47:34.773Z,3.08
2023-01-29T08:48:37.965Z,3.09
2023-01-29T08:49:41.217Z,3.10
2023-01-29T08:50:44.628Z,3.09
2023-01-29T08:51:47.896Z,3.08
2023-01-29T08:52:51.239Z,3.06
2023-01-29T08:53:54.481Z,3.04
2023-01-29T08:54:57.655Z,3.02
2023-01-29T08:56:00.778Z,3.02
2023-01-29T08:57:05.757Z,3.01
2023-01-29T08:58:11.382Z,3.00
2023-01-29T08:59:14.565Z,2.98
2023-01-29T09:00:18.824Z,2.98
2023-01-29T09:01:22.139Z,2.96
2023-01-29T09:02:25.426Z,2.93
2023-01-29T09:03:28.600Z,2.91
2023-01-29T09:04:31.763Z,2.89
2023-01-29T09:05:35.934Z,2.87
2023-01-29T09:06:39.188Z,2.86
2023-01-29T09:07:42.395Z,2.86
2023-01-29T09:08:45.612Z,2.85
2023-01-29T09:09:48.794Z,2.85
2023-01-29T09:10:52.051Z,2.84
2023-01-29T09:11:55.122Z,2.86
2023-01-29T09:12:58.353Z,2.88
2023-01-29T09:14:01.525Z,2.88
2023-01-29T09:15:05.122Z,2.90
2023-01-29T09:16:09.632Z,2.92
2023-01-29T09:17:12.834Z,2.93
2023-01-29T09:18:16.225Z,2.93
2023-01-29T09:19:21.167Z,2.94
2023-01-29T09:20:24.469Z,2.92
2023-01-29T09:21:27.621Z,2.91
2023-01-29T09:22:30.963Z,2.89
2023-01-29T09:23:34.303Z,2.88
2023-01-29T09:24:37.518Z,2.88
2023-01-29T09:25:42.562Z,2.88
2023-01-29T09:26:45.880Z,2.89
2023-01-29T09:27:51.952Z,2.90
2023-01-29T09:28:55.158Z,2.91
2023-01-29T09:29:58.454Z,2.92
2023-01-29T09:31:02.620Z,2.92
2023-01-29T09:32:07.027Z,2.92
2023-01-29T09:33:10.253Z,2.91
2023-01-29T09:34:13.713Z,2.91
2023-01-29T09:35:17.296Z,2.90
2023-01-29T09:36:20.820Z,2.88
2023-01-29T09:37:24.006Z,2.89
2023-01-29T09:38:27.181Z,2.89
2023-01-29T09:39:30.351Z,2.88
2023-01-29T09:40:56.611Z,2.86
2023-01-29T09:42:27.376Z,2.81
2023-01-29T09:44:00.096Z,2.80
2023-01-29T09:45:06.880Z,2.77
2023-01-29T09:46:16.990Z,2.77
2023-01-29T09:47:23.059Z,2.79
2023-01-29T09:48:29.855Z,2.79
2023-01-29T09:49:40.990Z,2.81
2023-01-29T09:50:47.895Z,2.81
2023-01-29T09:51:54.733Z,2.80
2023-01-29T09:53:27.214Z,2.79
2023-01-29T09:54:46.247Z,2.77
2023-01-29T09:55:53.011Z,2.77
2023-01-29T09:56:57.452Z,2.80
2023-01-29T09:58:28.661Z,2.82
2023-01-29T09:59:32.375Z,2.82
2023-01-29T10:00:50.958Z,2.79
2023-01-29T10:02:16.041Z,2.79
2023-01-29T10:03:45.562Z,2.77
2023-01-29T10:05:11.064Z,2.74
2023-01-29T10:06:21.147Z,2.74
2023-01-29T10:07:43.039Z,2.73
2023-01-29T10:08:49.820Z,2.74
2023-01-29T10:10:16.430Z,2.73
2023-01-29T10:11:23.149Z,2.73
2023-01-29T10:12:45.029Z,2.71
2023-01-29T10:14:08.280Z,2.72
2023-01-29T10:15:18.265Z,2.74
2023-01-29T10:16:31.045Z,2.75
2023-01-29T10:18:03.476Z,2.76
2023-01-29T10:19:13.040Z,2.77
2023-01-29T10:20:44.623Z,2.82
2023-01-29T10:22:06.542Z,2.84
2023-01-29T10:23:17.989Z,2.90
2023-01-29T10:24:48.851Z,2.93
2023-01-29T10:25:53.427Z,2.97
2023-01-29T10:26:57.930Z,3.02
2023-01-29T10:28:01.571Z,3.05
2023-01-29T10:29:07.513Z,3.07
2023-01-29T10:30:21.052Z,3.09
2023-01-29T10:31:33.755Z,3.13
2023-01-29T10:32:37.294Z,3.15
2023-01-29T10:33:49.152Z,3.19
2023-01-29T10:36:12.477Z,3.35
2023-01-29T10:37:23.627Z,3.27
2023-01-29T10:38:44.944Z,3.28
2023-01-29T10:39:50.143Z,3.30
2023-01-29T10:40:59.781Z,3.30
2023-01-29T10:42:08.332Z,3.29
2023-01-29T10:43:23.911Z,3.29
2023-01-29T10:44:46.957Z,3.27
2023-01-29T10:46:05.968Z,3.26
2023-01-29T10:47:12.833Z,3.25
2023-01-29T10:48:45.297Z,3.24
2023-01-29T10:51:20.852Z,3.34
2023-01-29T10:52:44.027Z,3.22
2023-01-29T10:54:02.471Z,3.22
2023-01-29T10:55:15.225Z,3.20
2023-01-29T10:56:28.360Z,3.20
2023-01-29T10:57:57.814Z,3.20
2023-01-29T10:59:07.326Z,3.19
2023-01-29T11:00:26.028Z,3.18
2023-01-29T11:01:29.316Z,3.17
2023-01-29T11:02:34.119Z,3.14
2023-01-29T11:03:37.313Z,3.13
2023-01-29T11:04:40.532Z,3.12
2023-01-29T11:06:11.330Z,3.12
2023-01-29T11:07:17.743Z,3.12
2023-01-29T11:08:27.877Z,3.10
2023-01-29T11:09:37.440Z,3.09
2023-01-29T11:12:14.685Z,3.21
2023-01-29T11:13:18.190Z,3.09
2023-01-29T11:14:27.859Z,3.09
2023-01-29T11:15:34.357Z,3.07
2023-01-29T11:16:46.681Z,3.09
2023-01-29T11:18:15.039Z,3.09
2023-01-29T11:19:18.207Z,3.10
2023-01-29T11:20:29.441Z,3.08
2023-01-29T11:21:34.496Z,3.08
2023-01-29T11:22:39.978Z,3.08
2023-01-29T11:23:43.218Z,3.08
2023-01-29T11:25:10.546Z,3.07
2023-01-29T11:26:21.681Z,3.07
2023-01-29T11:27:28.200Z,3.08
2023-01-29T11:28:43.287Z,3.09
2023-01-29T11:29:52.132Z,3.11
2023-01-29T11:30:57.213Z,3.12
2023-01-29T11:32:03.817Z,3.14
2023-01-29T11:33:22.974Z,3.15
2023-01-29T11:34:32.402Z,3.18
2023-01-29T11:35:36.201Z,3.19
2023-01-29T11:36:41.790Z,3.20
2023-01-29T11:37:46.304Z,3.20
2023-01-29T11:38:54.866Z,3.22
2023-01-29T11:39:58.040Z,3.23
2023-01-29T11:41:10.941Z,3.25
2023-01-29T11:42:21.350Z,3.28
2023-01-29T11:43:31.811Z,3.29
2023-01-29T11:44:41.701Z,3.31
2023-01-29T11:45:45.519Z,3.32
2023-01-29T11:46:51.432Z,3.32
2023-01-29T11:47:56.363Z,3.33
2023-01-29T11:49:14.191Z,3.33
2023-01-29T11:50:04.977Z,3.34
2023-01-29T11:51:09.857Z,3.32
2023-01-29T11:52:14.968Z,3.32
2023-01-29T11:53:27.831Z,3.33
2023-01-29T11:54:34.599Z,3.33
2023-01-29T11:55:50.220Z,3.33
2023-01-29T11:56:46.847Z,3.34
2023-01-29T11:58:05.533Z,3.33
2023-01-29T11:59:30.564Z,3.33
2023-01-29T12:00:37.461Z,3.32
2023-01-29T12:01:41.670Z,3.29
2023-01-29T12:02:48.011Z,3.28
2023-01-29T12:03:53.483Z,3.26
2023-01-29T12:05:08.847Z,3.26
2023-01-29T12:07:27.553Z,3.37
2023-01-29T12:08:37.309Z,3.25
2023-01-29T12:09:42.372Z,3.25
2023-01-29T12:10:45.651Z,3.25
2023-01-29T12:11:48.725Z,3.24
2023-01-29T12:12:51.804Z,3.23
2023-01-29T12:13:57.394Z,3.20
2023-01-29T12:16:36.257Z,3.26
2023-01-29T12:17:40.998Z,3.14
2023-01-29T12:18:56.869Z,3.10
2023-01-29T12:20:03.628Z,3.07
2023-01-29T12:21:19.577Z,3.02
2023-01-29T12:22:29.213Z,2.99
2023-01-29T12:23:41.782Z,2.94
2023-01-29T12:24:51.691Z,2.91
2023-01-29T12:26:17.325Z,2.86
2023-01-29T12:27:30.177Z,2.83
2023-01-29T12:28:56.487Z,2.81
2023-01-29T12:30:09.365Z,2.80
2023-01-29T12:31:24.942Z,2.76
2023-01-29T12:32:35.113Z,2.75
2023-01-29T12:33:59.278Z,2.75
2023-01-29T12:35:24.261Z,2.74
2023-01-29T12:36:40.117Z,2.72
2023-01-29T12:37:52.804Z,2.70
2023-01-29T12:38:56.128Z,2.69
2023-01-29T12:40:01.313Z,2.68
2023-01-29T12:41:10.908Z,2.67
2023-01-29T12:42:21.350Z,2.66
2023-01-29T12:43:36.944Z,2.66
2023-01-29T12:44:44.548Z,2.66
2023-01-29T12:45:57.365Z,2.66
2023-01-29T12:47:06.033Z,2.67
2023-01-29T12:48:12.865Z,2.68
2023-01-29T12:49:22.437Z,2.65
2023-01-29T12:50:31.634Z,2.65
2023-01-29T12:51:38.413Z,2.65
2023-01-29T12:53:00.227Z,2.66
2023-01-29T12:54:09.551Z,2.69
2023-01-29T12:55:22.169Z,2.71
2023-01-29T12:56:40.531Z,2.74
2023-01-29T12:57:50.371Z,2.78
2023-01-29T12:58:55.366Z,2.82
2023-01-29T13:00:08.695Z,2.84
2023-01-29T13:01:27.264Z,2.87
2023-01-29T13:02:55.271Z,2.88
2023-01-29T13:04:20.172Z,2.91
2023-01-29T13:05:35.396Z,2.91
2023-01-29T13:06:42.303Z,2.92
2023-01-29T13:07:49.584Z,2.92
2023-01-29T13:08:56.265Z,2.93
2023-01-29T13:11:20.132Z,3.05
2023-01-29T13:12:30.922Z,2.96
2023-01-29T13:13:40.565Z,2.97
2023-01-29T13:14:53.154Z,2.98
2023-01-29T13:15:58.219Z,2.98
2023-01-29T13:17:29.072Z,2.99
2023-01-29T13:18:41.984Z,2.98
2023-01-29T13:19:48.271Z,2.96
2023-01-29T13:20:52.486Z,2.94
2023-01-29T13:21:59.270Z,2.93
2023-01-29T13:23:05.941Z,2.92
2023-01-29T13:24:12.921Z,2.91
2023-01-29T13:25:18.291Z,2.90
2023-01-29T13:26:22.109Z,2.91
2023-01-29T13:27:28.309Z,2.91
2023-01-29T13:28:32.168Z,2.92
2023-01-29T13:29:35.372Z,2.90
2023-01-29T13:30:38.628Z,2.86
2023-01-29T13:31:45.814Z,2.83
2023-01-29T13:32:52.410Z,2.81
2023-01-29T13:34:28.168Z,2.76
2023-01-29T13:35:31.389Z,2.73
2023-01-29T13:36:37.299Z,2.66
2023-01-29T13:37:44.065Z,2.62
2023-01-29T13:38:50.826Z,2.58
2023-01-29T13:39:55.520Z,2.56
2023-01-29T13:41:02.291Z,2.54
2023-01-29T13:42:17.880Z,2.55
2023-01-29T13:43:23.117Z,2.58
2023-01-29T13:44:29.526Z,2.59
2023-01-29T13:45:36.368Z,2.61
2023-01-29T13:46:41.349Z,2.64
2023-01-29T13:47:45.165Z,2.66
2023-01-29T13:48:51.076Z,2.69
2023-01-29T13:50:06.579Z,2.71
2023-01-29T13:51:14.119Z,2.72
2023-01-29T13:52:42.827Z,2.72
2023-01-29T13:54:04.475Z,2.72
2023-01-29T13:55:28.337Z,2.71
2023-01-29T13:56:37.890Z,2.69
2023-01-29T13:57:47.673Z,2.67
2023-01-29T13:58:55.219Z,2.64
2023-01-29T13:59:58.347Z,2.64
2023-01-29T14:01:02.494Z,2.65
2023-01-29T14:02:21.664Z,2.67
2023-01-29T14:03:29.932Z,2.70
2023-01-29T14:04:33.631Z,2.71
2023-01-29T14:05:46.465Z,2.73
2023-01-29T14:06:51.847Z,2.71
2023-01-29T14:07:59.804Z,2.69
2023-01-29T14:09:03.106Z,2.66
2023-01-29T14:10:15.467Z,2.67
2023-01-29T14:11:26.327Z,2.66
2023-01-29T14:12:35.249Z,2.67
2023-01-29T14:13:38.677Z,2.67
2023-01-29T14:14:51.081Z,2.68
2023-01-29T14:16:00.889Z,2.68
2023-01-29T14:17:04.139Z,2.72
2023-01-29T14:18:25.342Z,2.73
2023-01-29T14:19:28.581Z,2.74
2023-01-29T14:20:45.882Z,2.76
2023-01-29T14:21:49.548Z,2.76
2023-01-29T14:22:56.357Z,2.77
2023-01-29T14:24:18.012Z,2.77
2023-01-29T14:25:24.238Z,2.77
2023-01-29T14:26:42.002Z,2.77
2023-01-29T14:27:48.614Z,2.76
2023-01-29T14:29:25.552Z,2.73
2023-01-29T14:30:25.122Z,2.70
2023-01-29T14:31:38.024Z,2.67
2023-01-29T14:32:41.256Z,2.65
2023-01-29T14:33:45.391Z,2.64
2023-01-29T14:35:08.005Z,2.63
2023-01-29T14:36:15.531Z,2.62
2023-01-29T14:37:22.533Z,2.61
2023-01-29T14:38:28.872Z,2.63
2023-01-29T14:39:38.578Z,2.63
2023-01-29T14:40:45.331Z,2.65
2023-01-29T14:41:51.223Z,2.66
2023-01-29T14:43:10.068Z,2.68
2023-01-29T14:44:50.113Z,2.69
2023-01-29T14:45:53.659Z,2.71
2023-01-29T14:46:56.952Z,2.67
2023-01-29T14:48:03.493Z,2.68
2023-01-29T14:49:09.293Z,2.68
2023-01-29T14:50:37.836Z,2.69
2023-01-29T14:51:44.107Z,2.70
2023-01-29T14:52:49.034Z,2.72
2023-01-29T14:53:58.536Z,2.72
2023-01-29T14:55:05.257Z,2.71
2023-01-29T14:56:31.973Z,2.70
2023-01-29T14:57:36.707Z,2.68
2023-01-29T14:58:49.187Z,2.69
2023-01-29T15:00:09.067Z,2.69
2023-01-29T15:01:18.740Z,2.70
2023-01-29T15:02:33.335Z,2.73
2023-01-29T15:03:42.942Z,2.74
2023-01-29T15:04:51.878Z,2.74
2023-01-29T15:05:57.361Z,2.74
2023-01-29T15:07:07.589Z,2.74
2023-01-29T15:08:29.444Z,2.74
2023-01-29T15:09:51.314Z,2.74
2023-01-29T15:11:14.960Z,2.73
2023-01-29T15:12:27.562Z,2.70
2023-01-29T15:13:37.313Z,2.67
2023-01-29T15:15:09.594Z,2.65
2023-01-29T15:16:27.748Z,2.65
2023-01-29T15:17:49.482Z,2.66
2023-01-29T15:18:56.235Z,2.65
2023-01-29T15:19:59.333Z,2.66
2023-01-29T15:21:07.716Z,2.67
2023-01-29T15:22:13.454Z,2.67
2023-01-29T15:23:32.970Z,2.67
2023-01-29T15:24:38.293Z,2.68
2023-01-29T15:25:50.684Z,2.67
2023-01-29T15:26:54.413Z,2.65
2023-01-29T15:27:58.607Z,2.62
2023-01-29T15:29:04.477Z,2.61
2023-01-29T15:30:14.790Z,2.58
2023-01-29T15:31:18.405Z,2.57
2023-01-29T15:32:28.930Z,2.56
2023-01-29T15:33:34.572Z,2.55
2023-01-29T15:34:41.372Z,2.54
2023-01-29T15:35:48.319Z,2.52